createdAt,value
2022-09-28T00:02:21.168Z,11.96
2022-09-28T00:04:47.719Z,11.94
2022-09-28T00:07:14.305Z,11.95
2022-09-28T00:09:40.824Z,11.95
2022-09-28T00:12:07.340Z,11.94
2022-09-28T00:14:34.102Z,11.94
2022-09-28T00:17:00.607Z,11.92
2022-09-28T00:19:27.157Z,11.93
2022-09-28T00:21:53.649Z,11.93
2022-09-28T00:24:24.042Z,11.92
2022-09-28T00:26:55.706Z,11.90
2022-09-28T00:29:28.949Z,11.88
2022-09-28T00:32:11.727Z,11.88
2022-09-28T00:34:42.481Z,11.88
2022-09-28T00:37:09.999Z,11.88
2022-09-28T00:39:38.365Z,11.86
2022-09-28T00:42:14.691Z,11.85
2022-09-28T00:44:52.204Z,11.85
2022-09-28T00:47:26.608Z,11.86
2022-09-28T00:50:17.557Z,11.85
2022-09-28T00:53:06.795Z,11.84
2022-09-28T00:55:55.373Z,11.83
2022-09-28T00:58:27.643Z,11.86
2022-09-28T01:00:59.424Z,11.88
2022-09-28T01:03:27.790Z,11.88
2022-09-28T01:05:57.757Z,11.89
2022-09-28T01:08:27.741Z,11.89
2022-09-28T01:10:54.266Z,11.90
2022-09-28T01:13:23.556Z,11.88
2022-09-28T01:16:19.166Z,11.83
2022-09-28T01:18:55.004Z,11.87
2022-09-28T01:21:24.035Z,11.84
2022-09-28T01:23:53.518Z,11.81
2022-09-28T01:26:56.604Z,11.73
2022-09-28T01:29:23.047Z,11.76
2022-09-28T01:31:56.860Z,11.72
2022-09-28T01:34:31.450Z,11.70
2022-09-28T01:37:04.123Z,11.68
2022-09-28T01:39:38.780Z,11.68
2022-09-28T01:42:10.962Z,11.69
2022-09-28T01:44:43.431Z,11.69
2022-09-28T01:47:14.309Z,11.70
2022-09-28T01:49:51.499Z,11.67
2022-09-28T01:52:47.934Z,11.63
2022-09-28T01:55:25.439Z,11.64
2022-09-28T01:57:57.330Z,11.63
2022-09-28T02:00:25.015Z,11.60
2022-09-28T02:03:05.742Z,11.55
2022-09-28T02:05:47.560Z,11.53
2022-09-28T02:08:25.873Z,11.51
2022-09-28T02:11:00.453Z,11.49
2022-09-28T02:13:35.538Z,11.45
2022-09-28T02:16:10.343Z,11.43
2022-09-28T02:18:37.176Z,11.43
2022-09-28T02:21:15.119Z,11.37
2022-09-28T02:23:52.309Z,11.37
2022-09-28T02:26:23.255Z,11.36
2022-09-28T02:28:49.890Z,11.37
2022-09-28T02:31:16.461Z,11.37
2022-09-28T02:33:44.792Z,11.39
2022-09-28T02:36:11.610Z,11.39
2022-09-28T02:38:38.379Z,11.41
2022-09-28T02:41:12.272Z,11.38
2022-09-28T02:43:49.105Z,11.43
2022-09-28T02:46:58.090Z,11.39
2022-09-28T02:50:02.962Z,11.38
2022-09-28T02:52:47.421Z,11.41
2022-09-28T02:55:31.038Z,11.41
2022-09-28T02:58:22.264Z,11.38
2022-09-28T03:01:19.292Z,11.37
2022-09-28T03:04:01.287Z,11.37
2022-09-28T03:06:48.434Z,11.38
2022-09-28T03:09:25.690Z,11.40
2022-09-28T03:11:57.398Z,11.43
2022-09-28T03:14:23.952Z,11.46
2022-09-28T03:16:50.584Z,11.47
2022-09-28T03:19:21.412Z,11.47
2022-09-28T03:21:47.960Z,11.48
2022-09-28T03:24:14.425Z,11.50
2022-09-28T03:26:41.513Z,11.49
2022-09-28T03:29:08.029Z,11.49
2022-09-28T03:31:35.331Z,11.48
2022-09-28T03:34:02.086Z,11.48
2022-09-28T03:36:28.546Z,11.47
2022-09-28T03:38:56.218Z,11.47
2022-09-28T03:41:24.524Z,11.47
2022-09-28T03:43:51.048Z,11.49
2022-09-28T03:46:17.678Z,11.49
2022-09-28T03:48:44.276Z,11.49
2022-09-28T03:51:12.221Z,11.49
2022-09-28T03:53:39.128Z,11.48
2022-09-28T03:56:08.206Z,11.47
2022-09-28T03:58:35.095Z,11.46
2022-09-28T04:01:07.296Z,11.45
2022-09-28T04:03:34.302Z,11.46
2022-09-28T04:06:01.238Z,11.46
2022-09-28T04:08:27.916Z,11.45
2022-09-28T04:10:58.902Z,11.43
2022-09-28T04:13:27.472Z,11.44
2022-09-28T04:15:56.115Z,11.44
2022-09-28T04:18:23.079Z,11.44
2022-09-28T04:20:59.321Z,11.42
2022-09-28T04:23:27.949Z,11.46
2022-09-28T04:25:54.724Z,11.49
2022-09-28T04:28:39.809Z,11.49
2022-09-28T04:31:12.057Z,11.47
2022-09-28T04:33:38.715Z,11.51
2022-09-28T04:36:06.032Z,11.49
2022-09-28T04:38:51.692Z,11.47
2022-09-28T04:41:19.867Z,11.46
2022-09-28T04:43:50.315Z,11.44
2022-09-28T04:46:17.288Z,11.45
2022-09-28T04:48:43.897Z,11.44
2022-09-28T04:51:10.474Z,11.44
2022-09-28T04:53:37.130Z,11.44
2022-09-28T04:56:06.402Z,11.44
2022-09-28T04:58:35.276Z,11.43
2022-09-28T05:01:05.249Z,11.44
2022-09-28T05:03:31.825Z,11.45
2022-09-28T05:05:58.898Z,11.45
2022-09-28T05:08:26.331Z,11.44
2022-09-28T05:11:00.919Z,11.40
2022-09-28T05:13:30.239Z,11.40
2022-09-28T05:16:01.780Z,11.39
2022-09-28T05:18:31.093Z,11.38
2022-09-28T05:20:57.645Z,11.37
2022-09-28T05:23:24.229Z,11.33
2022-09-28T05:25:51.115Z,11.32
2022-09-28T05:28:26.292Z,11.28
2022-09-28T05:30:52.845Z,11.29
2022-09-28T05:33:19.458Z,11.30
2022-09-28T05:35:49.777Z,11.29
2022-09-28T05:38:18.982Z,11.29
2022-09-28T05:40:45.645Z,11.34
2022-09-28T05:43:12.247Z,11.33
2022-09-28T05:45:38.721Z,11.32
2022-09-28T05:48:05.417Z,11.31
2022-09-28T05:50:31.940Z,11.31
2022-09-28T05:53:07.732Z,11.30
2022-09-28T05:55:35.492Z,11.29
2022-09-28T05:58:05.075Z,11.28
2022-09-28T06:00:33.139Z,11.28
2022-09-28T06:03:08.661Z,11.28
2022-09-28T06:05:36.856Z,11.29
2022-09-28T06:08:07.194Z,11.30
2022-09-28T06:10:34.638Z,11.31
2022-09-28T06:13:01.812Z,11.31
2022-09-28T06:15:30.770Z,11.32
2022-09-28T06:18:02.094Z,11.33
2022-09-28T06:20:31.538Z,11.33
2022-09-28T06:22:58.187Z,11.34
2022-09-28T06:25:25.932Z,11.33
2022-09-28T06:28:00.534Z,11.29
2022-09-28T06:30:28.926Z,11.29
2022-09-28T06:32:57.161Z,11.28
2022-09-28T06:35:26.166Z,11.27
2022-09-28T06:37:53.836Z,11.27
2022-09-28T06:40:21.336Z,11.25
2022-09-28T06:43:10.457Z,11.23
2022-09-28T06:45:38.669Z,11.27
2022-09-28T06:48:05.871Z,11.28
2022-09-28T06:50:37.451Z,11.29
2022-09-28T06:53:09.587Z,11.30
2022-09-28T06:55:39.171Z,11.29
2022-09-28T06:58:09.657Z,11.30
2022-09-28T07:00:37.965Z,11.30
2022-09-28T07:03:11.774Z,11.30
2022-09-28T07:05:42.029Z,11.32
2022-09-28T07:08:08.607Z,11.34
2022-09-28T07:10:35.304Z,11.37
2022-09-28T07:13:04.846Z,11.39
2022-09-28T07:15:32.430Z,11.41
2022-09-28T07:18:03.078Z,11.43
2022-09-28T07:20:32.007Z,11.44
2022-09-28T07:23:10.778Z,11.45
2022-09-28T07:25:45.525Z,11.47
2022-09-28T07:28:12.381Z,11.47
2022-09-28T07:30:39.105Z,11.50
2022-09-28T07:33:08.122Z,11.50
2022-09-28T07:35:34.636Z,11.52
2022-09-28T07:38:03.620Z,11.54
2022-09-28T07:40:49.667Z,11.56
2022-09-28T07:43:20.646Z,11.58
2022-09-28T07:45:48.815Z,11.60
2022-09-28T07:48:16.757Z,11.62
2022-09-28T07:50:51.843Z,11.62
2022-09-28T07:53:20.265Z,11.65
2022-09-28T07:55:54.219Z,11.64
2022-09-28T07:58:21.131Z,11.66
2022-09-28T08:00:49.147Z,11.66
2022-09-28T08:03:17.263Z,11.67
2022-09-28T08:05:43.852Z,11.67
2022-09-28T08:08:10.485Z,11.68
2022-09-28T08:10:37.756Z,11.71
2022-09-28T08:13:06.465Z,11.75
2022-09-28T08:15:37.087Z,11.78
2022-09-28T08:18:07.175Z,11.80
2022-09-28T08:20:53.253Z,11.87
2022-09-28T08:23:20.508Z,11.91
2022-09-28T08:25:52.595Z,11.95
2022-09-28T08:28:19.640Z,12.03
2022-09-28T08:30:47.498Z,12.10
2022-09-28T08:33:15.978Z,12.20
2022-09-28T08:35:42.519Z,12.30
2022-09-28T08:38:09.647Z,12.41
2022-09-28T08:41:15.347Z,12.48
2022-09-28T08:44:00.646Z,12.63
2022-09-28T08:46:34.266Z,12.76
2022-09-28T08:49:25.648Z,12.89
2022-09-28T08:52:03.927Z,12.98
2022-09-28T08:55:11.511Z,13.06
2022-09-28T08:57:45.240Z,13.20
2022-09-28T09:00:29.684Z,13.25
2022-09-28T09:02:56.511Z,13.36
2022-09-28T09:05:39.478Z,13.39
2022-09-28T09:08:24.273Z,13.47
2022-09-28T09:10:58.035Z,13.55
2022-09-28T09:13:46.519Z,13.62
2022-09-28T09:16:34.927Z,13.74
2022-09-28T09:19:18.350Z,13.90
2022-09-28T09:22:27.369Z,13.98
2022-09-28T09:25:22.097Z,14.03
2022-09-28T09:28:27.604Z,14.01
2022-09-28T09:31:02.925Z,13.96
2022-09-28T09:33:35.157Z,13.84
2022-09-28T09:36:18.755Z,13.67
2022-09-28T09:38:47.903Z,13.60
2022-09-28T09:41:23.568Z,13.46
2022-09-28T09:44:21.786Z,13.32
2022-09-28T09:47:11.389Z,13.27
2022-09-28T09:49:49.779Z,13.29
2022-09-28T09:52:24.281Z,13.31
2022-09-28T09:55:15.146Z,13.38
2022-09-28T09:57:51.195Z,13.52
2022-09-28T10:00:18.658Z,13.65
2022-09-28T10:02:47.743Z,13.76
2022-09-28T10:05:18.006Z,13.84
2022-09-28T10:08:11.718Z,13.86
2022-09-28T10:11:02.637Z,13.96
2022-09-28T10:13:29.300Z,14.05
2022-09-28T10:15:56.413Z,14.11
2022-09-28T10:18:23.330Z,14.20
2022-09-28T10:20:49.870Z,14.31
2022-09-28T10:23:33.915Z,14.43
2022-09-28T10:26:05.951Z,14.64
2022-09-28T10:28:54.322Z,14.83
2022-09-28T10:31:38.070Z,15.02
2022-09-28T10:34:06.155Z,15.16
2022-09-28T10:36:42.449Z,15.19
2022-09-28T10:39:26.300Z,15.09
2022-09-28T10:41:53.957Z,15.03
2022-09-28T10:44:22.928Z,14.92
2022-09-28T10:46:59.211Z,14.76
2022-09-28T10:49:27.229Z,14.67
2022-09-28T10:51:56.187Z,14.56
2022-09-28T10:54:28.383Z,14.46
2022-09-28T10:56:56.872Z,14.45
2022-09-28T10:59:34.035Z,14.49
2022-09-28T11:02:12.790Z,14.58
2022-09-28T11:04:43.216Z,14.79
2022-09-28T11:07:24.051Z,15.04
2022-09-28T11:09:52.540Z,15.45
2022-09-28T11:12:24.496Z,15.92
2022-09-28T11:14:59.717Z,16.58
2022-09-28T11:17:42.026Z,17.38
2022-09-28T11:20:27.510Z,18.32
2022-09-28T11:22:56.099Z,19.20
2022-09-28T11:25:30.295Z,20.03
2022-09-28T11:27:59.930Z,20.78
2022-09-28T11:30:32.944Z,21.37
2022-09-28T11:33:12.348Z,21.78
2022-09-28T11:36:17.218Z,22.04
2022-09-28T11:39:09.474Z,22.34
2022-09-28T11:41:53.579Z,22.71
2022-09-28T11:44:44.627Z,23.21
2022-09-28T11:47:29.550Z,23.76
2022-09-28T11:50:24.009Z,24.30
2022-09-28T11:52:57.426Z,24.83
2022-09-28T11:55:36.354Z,25.13
2022-09-28T11:58:18.352Z,25.42
2022-09-28T12:00:54.498Z,25.75
2022-09-28T12:03:36.130Z,26.09
2022-09-28T12:06:08.885Z,26.50
2022-09-28T12:08:40.983Z,26.92
2022-09-28T12:11:23.236Z,27.28
2022-09-28T12:13:52.907Z,27.45
2022-09-28T12:17:00.913Z,27.24
2022-09-28T12:19:27.784Z,26.74
2022-09-28T12:21:59.581Z,26.33
2022-09-28T12:24:48.471Z,26.01
2022-09-28T12:27:25.062Z,26.06
2022-09-28T12:30:15.358Z,26.22
2022-09-28T12:32:48.783Z,26.47
2022-09-28T12:35:26.098Z,26.69
2022-09-28T12:38:08.931Z,27.00
2022-09-28T12:40:35.443Z,27.35
2022-09-28T12:43:12.784Z,27.77
2022-09-28T12:46:16.663Z,27.90
2022-09-28T12:51:52.344Z,27.66
2022-09-28T12:54:54.311Z,27.43
2022-09-28T12:57:41.814Z,27.41
2022-09-28T13:00:13.969Z,27.55
2022-09-28T13:02:43.176Z,27.78
2022-09-28T13:05:46.395Z,28.05
2022-09-28T13:08:18.744Z,28.44
2022-09-28T13:10:56.299Z,28.88
2022-09-28T13:13:49.109Z,29.03
2022-09-28T13:16:21.993Z,28.87
2022-09-28T13:19:00.604Z,28.58
2022-09-28T13:21:39.480Z,28.37
2022-09-28T13:24:31.106Z,28.40
2022-09-28T13:27:04.519Z,28.48
2022-09-28T13:29:32.346Z,28.73
2022-09-28T13:32:01.218Z,28.81
2022-09-28T13:34:29.770Z,28.74
2022-09-28T13:37:16.926Z,28.46
2022-09-28T13:39:57.445Z,28.33
2022-09-28T13:42:40.776Z,28.30
2022-09-28T13:45:22.537Z,28.35
2022-09-28T13:48:05.337Z,28.52
2022-09-28T13:50:56.695Z,28.74
2022-09-28T13:53:35.357Z,29.04
2022-09-28T13:56:35.334Z,29.09
2022-09-28T13:59:17.064Z,28.92
2022-09-28T14:02:00.704Z,28.32
2022-09-28T14:04:54.856Z,27.61
2022-09-28T14:10:21.160Z,26.84
2022-09-28T14:12:53.028Z,26.93
2022-09-28T14:15:28.597Z,27.19
2022-09-28T14:18:16.360Z,27.52
2022-09-28T14:21:03.821Z,27.70
2022-09-28T14:23:44.432Z,27.91
2022-09-28T14:26:49.937Z,28.13
2022-09-28T14:29:28.472Z,28.48
2022-09-28T14:31:58.296Z,28.82
2022-09-28T14:34:41.596Z,29.13
2022-09-28T14:37:45.007Z,29.49
2022-09-28T14:40:50.107Z,29.93
2022-09-28T14:43:35.678Z,30.34
2022-09-28T14:46:11.463Z,30.67
2022-09-28T14:48:50.297Z,30.93
2022-09-28T14:51:26.579Z,31.20
2022-09-28T14:54:05.529Z,31.42
2022-09-28T14:56:40.159Z,31.66
2022-09-28T14:59:22.762Z,31.82
2022-09-28T15:01:57.817Z,31.87
2022-09-28T15:04:30.880Z,31.81
2022-09-28T15:07:00.344Z,31.63
2022-09-28T15:09:28.911Z,31.49
2022-09-28T15:12:16.220Z,31.38
2022-09-28T15:15:04.283Z,31.35
2022-09-28T15:17:40.214Z,31.19
2022-09-28T15:20:17.288Z,30.83
2022-09-28T15:22:48.797Z,30.17
2022-09-28T15:25:21.264Z,29.47
2022-09-28T15:27:56.349Z,28.69
2022-09-28T15:30:40.911Z,27.90
2022-09-28T15:33:45.512Z,27.21
2022-09-28T15:36:26.439Z,26.47
2022-09-28T15:39:20.910Z,25.77
2022-09-28T15:41:50.237Z,25.26
2022-09-28T15:44:30.256Z,24.73
2022-09-28T15:47:14.079Z,24.12
2022-09-28T15:49:58.675Z,23.62
2022-09-28T15:52:25.189Z,23.26
2022-09-28T15:54:52.194Z,22.88
2022-09-28T15:57:32.908Z,22.45
2022-09-28T16:00:00.886Z,22.16
2022-09-28T16:02:27.902Z,21.82
2022-09-28T16:04:58.825Z,21.49
2022-09-28T16:07:38.210Z,21.15
2022-09-28T16:10:13.786Z,20.87
2022-09-28T16:12:40.196Z,20.67
2022-09-28T16:15:15.817Z,20.43
2022-09-28T16:17:42.905Z,20.24
2022-09-28T16:20:24.527Z,20.00
2022-09-28T16:22:51.134Z,19.87
2022-09-28T16:25:23.066Z,19.69
2022-09-28T16:27:51.035Z,19.53
2022-09-28T16:30:25.014Z,19.34
2022-09-28T16:33:03.215Z,19.14
2022-09-28T16:35:50.575Z,18.92
2022-09-28T16:38:18.905Z,18.78
2022-09-28T16:40:49.700Z,18.61
2022-09-28T16:43:28.617Z,18.45
2022-09-28T16:46:23.252Z,18.28
2022-09-28T16:48:50.787Z,18.22
2022-09-28T16:51:22.668Z,18.08
2022-09-28T16:54:08.335Z,17.98
2022-09-28T16:56:36.733Z,17.86
2022-09-28T16:59:04.501Z,17.74
2022-09-28T17:01:31.454Z,17.61
2022-09-28T17:03:58.015Z,17.50
2022-09-28T17:06:27.708Z,17.39
2022-09-28T17:08:56.700Z,17.30
2022-09-28T17:11:24.857Z,17.23
2022-09-28T17:14:00.143Z,17.17
2022-09-28T17:16:59.917Z,17.08
2022-09-28T17:19:28.645Z,17.00
2022-09-28T17:21:55.153Z,16.99
2022-09-28T17:24:21.944Z,16.93
2022-09-28T17:26:50.879Z,16.90
2022-09-28T17:29:18.638Z,16.88
2022-09-28T17:31:46.790Z,16.87
2022-09-28T17:34:17.421Z,16.85
2022-09-28T17:36:45.446Z,16.85
2022-09-28T17:39:14.017Z,16.82
2022-09-28T17:41:41.140Z,16.79
2022-09-28T17:44:08.024Z,16.74
2022-09-28T17:46:37.284Z,16.70
2022-09-28T17:49:06.177Z,16.65
2022-09-28T17:51:37.524Z,16.61
2022-09-28T17:54:06.057Z,16.59
2022-09-28T17:56:33.162Z,16.54
2022-09-28T17:59:05.604Z,16.47
2022-09-28T18:01:36.049Z,16.46
2022-09-28T18:04:08.174Z,16.40
2022-09-28T18:06:37.367Z,16.38
2022-09-28T18:09:05.298Z,16.35
2022-09-28T18:11:33.852Z,16.32
2022-09-28T18:14:00.668Z,16.32
2022-09-28T18:16:28.848Z,16.30
2022-09-28T18:18:55.697Z,16.27
2022-09-28T18:21:22.261Z,16.25
2022-09-28T18:23:48.878Z,16.22
2022-09-28T18:26:16.873Z,16.20
2022-09-28T18:28:43.441Z,16.20
2022-09-28T18:31:12.513Z,16.19
2022-09-28T18:33:39.614Z,16.20
2022-09-28T18:36:07.470Z,16.20
2022-09-28T18:38:38.167Z,16.19
2022-09-28T18:41:08.539Z,16.20
2022-09-28T18:43:36.470Z,16.22
2022-09-28T18:46:11.143Z,16.18
2022-09-28T18:48:40.549Z,16.17
2022-09-28T18:51:12.484Z,16.12
2022-09-28T18:53:40.151Z,16.11
2022-09-28T18:56:09.454Z,16.07
2022-09-28T18:58:38.006Z,16.04
2022-09-28T19:01:29.565Z,15.96
2022-09-28T19:04:00.324Z,15.91
2022-09-28T19:06:27.301Z,15.86
2022-09-28T19:08:55.751Z,15.75
2022-09-28T19:11:23.007Z,15.68
2022-09-28T19:13:49.557Z,15.61
2022-09-28T19:16:20.075Z,15.55
2022-09-28T19:18:46.991Z,15.52
2022-09-28T19:21:15.233Z,15.47
2022-09-28T19:23:46.956Z,15.41
2022-09-28T19:26:18.405Z,15.36
2022-09-28T19:28:44.972Z,15.32
2022-09-28T19:31:12.127Z,15.28
2022-09-28T19:33:40.135Z,15.23
2022-09-28T19:36:09.381Z,15.18
2022-09-28T19:38:37.596Z,15.14
2022-09-28T19:41:12.644Z,15.04
2022-09-28T19:43:42.256Z,15.01
2022-09-28T19:46:08.879Z,14.93
2022-09-28T19:48:35.556Z,14.84
2022-09-28T19:51:04.905Z,14.73
2022-09-28T19:53:38.332Z,14.63
2022-09-28T19:56:05.726Z,14.53
2022-09-28T19:58:35.792Z,14.42
2022-09-28T20:01:06.926Z,14.31
2022-09-28T20:03:34.367Z,14.24
2022-09-28T20:06:01.870Z,14.14
2022-09-28T20:08:32.218Z,14.05
2022-09-28T20:10:59.897Z,13.98
2022-09-28T20:13:31.810Z,13.88
2022-09-28T20:16:10.371Z,13.79
2022-09-28T20:18:38.938Z,13.75
2022-09-28T20:21:07.948Z,13.67
2022-09-28T20:23:37.385Z,13.63
2022-09-28T20:26:05.465Z,13.58
2022-09-28T20:28:32.909Z,13.54
2022-09-28T20:31:06.599Z,13.47
2022-09-28T20:33:34.427Z,13.42
2022-09-28T20:36:09.469Z,13.37
2022-09-28T20:38:40.480Z,13.37
2022-09-28T20:41:08.564Z,13.35
2022-09-28T20:43:35.301Z,13.32
2022-09-28T20:46:03.794Z,13.28
2022-09-28T20:48:31.148Z,13.24
2022-09-28T20:51:05.271Z,13.20
2022-09-28T20:53:32.884Z,13.17
2022-09-28T20:56:14.082Z,13.09
2022-09-28T20:58:41.002Z,13.08
2022-09-28T21:01:15.649Z,13.05
2022-09-28T21:03:47.167Z,13.02
2022-09-28T21:06:14.896Z,13.01
2022-09-28T21:08:42.728Z,12.99
2022-09-28T21:11:09.277Z,12.96
2022-09-28T21:13:35.839Z,12.93
2022-09-28T21:16:04.063Z,12.88
2022-09-28T21:18:30.796Z,12.86
2022-09-28T21:20:57.306Z,12.84
2022-09-28T21:23:25.053Z,12.82
2022-09-28T21:26:01.895Z,12.76
2022-09-28T21:28:28.482Z,12.76
2022-09-28T21:30:55.175Z,12.73
2022-09-28T21:33:21.777Z,12.69
2022-09-28T21:35:48.302Z,12.67
2022-09-28T21:38:14.817Z,12.67
2022-09-28T21:40:42.014Z,12.67
2022-09-28T21:43:08.627Z,12.67
2022-09-28T21:45:35.240Z,12.67
2022-09-28T21:48:01.764Z,12.67
2022-09-28T21:50:28.323Z,12.66
2022-09-28T21:52:55.812Z,12.63
2022-09-28T21:55:24.070Z,12.59
2022-09-28T21:57:51.182Z,12.55
2022-09-28T22:00:20.804Z,12.51
2022-09-28T22:02:47.414Z,12.48
2022-09-28T22:05:14.017Z,12.43
2022-09-28T22:07:42.405Z,12.36
2022-09-28T22:10:12.810Z,12.28
2022-09-28T22:12:39.403Z,12.23
2022-09-28T22:15:06.557Z,12.19
2022-09-28T22:17:33.082Z,12.15
2022-09-28T22:19:59.718Z,12.09
2022-09-28T22:22:29.035Z,12.05
2022-09-28T22:24:56.239Z,12.01
2022-09-28T22:27:24.088Z,11.96
2022-09-28T22:29:51.158Z,11.94
2022-09-28T22:32:18.866Z,11.92
2022-09-28T22:34:45.478Z,11.90
2022-09-28T22:37:12.037Z,11.89
2022-09-28T22:39:41.054Z,11.89
2022-09-28T22:42:08.281Z,11.90
2022-09-28T22:44:35.850Z,11.91
2022-09-28T22:47:03.545Z,11.94
2022-09-28T22:49:30.199Z,11.96
2022-09-28T22:51:56.725Z,12.02
2022-09-28T22:54:23.351Z,12.05
2022-09-28T22:56:49.862Z,12.09
2022-09-28T22:59:16.415Z,12.14
2022-09-28T23:01:43.105Z,12.17
2022-09-28T23:04:09.749Z,12.21
2022-09-28T23:06:36.385Z,12.23
2022-09-28T23:09:03.518Z,12.25
2022-09-28T23:11:30.126Z,12.27
2022-09-28T23:13:58.711Z,12.28
2022-09-28T23:16:26.861Z,12.29
2022-09-28T23:18:55.091Z,12.31
2022-09-28T23:21:24.285Z,12.31
2022-09-28T23:23:53.622Z,12.31
2022-09-28T23:26:23.891Z,12.31
2022-09-28T23:28:51.133Z,12.30
2022-09-28T23:31:20.722Z,12.26
2022-09-28T23:33:47.725Z,12.22
2022-09-28T23:36:15.044Z,12.17
2022-09-28T23:38:41.992Z,12.12
2022-09-28T23:41:08.994Z,12.06
2022-09-28T23:43:36.325Z,12.01
2022-09-28T23:46:04.540Z,11.97
2022-09-28T23:48:31.307Z,11.94
2022-09-28T23:50:57.972Z,11.91
2022-09-28T23:53:24.564Z,11.88
2022-09-28T23:55:51.205Z,11.84
2022-09-28T23:58:17.760Z,11.82
